Long Beach, California
Current Conditions -  °F | °C
As of 2:53 AM on Tuesday 21 Oct 2014 (Local Time) from KLGB Reporting Station
Overcast Overcast  
Wind Chill: 19°   Ceiling: 1300
Heat Index: 19°   Visibility: 10mi
Dew Point: 17°   Wind: 5mph
Humidity: 87%   Direction: 110°ESE
Pressure: 29.89"   Gusts: NA
Location:  33.77°N, 118.19°W
Report Text: KLGB 210953Z AUTO 11004KT 10SM OVC013 19/17 A2989 RMK AO2 SLP119 T01890167 TSNO
Loading
Personal Weather Stations






























Interactive Weather Map
Tropical Storm Tracking
New forecast layout! Learn more

10-Day Weather Forecast

Advertisements
Track Severe Weather on mobile